sensor_id;sensor_type;location;lat;lon;timestamp;temperature;humidity
7720;DHT22;3902;49.474;8.616;2022-12-11T00:02:00;0.90;99.90
7720;DHT22;3902;49.474;8.616;2022-12-11T00:04:26;0.90;99.90
7720;DHT22;3902;49.474;8.616;2022-12-11T00:06:52;0.90;99.90
7720;DHT22;3902;49.474;8.616;2022-12-11T00:09:19;0.90;99.90
7720;DHT22;3902;49.474;8.616;2022-12-11T00:11:45;0.90;99.90
7720;DHT22;3902;49.474;8.616;2022-12-11T00:14:12;0.90;99.90
7720;DHT22;3902;49.474;8.616;2022-12-11T00:16:38;0.90;99.90
7720;DHT22;3902;49.474;8.616;2022-12-11T00:19:04;0.90;99.90
7720;DHT22;3902;49.474;8.616;2022-12-11T00:21:30;0.90;99.90
7720;DHT22;3902;49.474;8.616;2022-12-11T00:23:55;0.90;99.90
7720;DHT22;3902;49.474;8.616;2022-12-11T00:26:21;0.90;99.90
7720;DHT22;3902;49.474;8.616;2022-12-11T00:28:47;1.00;99.90
7720;DHT22;3902;49.474;8.616;2022-12-11T00:31:16;1.00;99.90
7720;DHT22;3902;49.474;8.616;2022-12-11T00:33:43;1.00;99.90
7720;DHT22;3902;49.474;8.616;2022-12-11T00:36:23;1.00;99.90
7720;DHT22;3902;49.474;8.616;2022-12-11T00:38:49;1.10;99.90
7720;DHT22;3902;49.474;8.616;2022-12-11T00:41:15;1.10;99.90
7720;DHT22;3902;49.474;8.616;2022-12-11T00:43:41;1.10;99.90
7720;DHT22;3902;49.474;8.616;2022-12-11T00:46:06;1.10;99.90
7720;DHT22;3902;49.474;8.616;2022-12-11T00:48:32;1.10;99.90
7720;DHT22;3902;49.474;8.616;2022-12-11T00:50:58;1.20;99.90
7720;DHT22;3902;49.474;8.616;2022-12-11T00:53:23;1.20;99.90
7720;DHT22;3902;49.474;8.616;2022-12-11T00:55:49;1.20;99.90
7720;DHT22;3902;49.474;8.616;2022-12-11T00:58:15;1.30;99.90
7720;DHT22;3902;49.474;8.616;2022-12-11T01:00:41;1.30;99.90
7720;DHT22;3902;49.474;8.616;2022-12-11T01:03:08;1.30;99.90
7720;DHT22;3902;49.474;8.616;2022-12-11T01:05:34;1.30;99.90
7720;DHT22;3902;49.474;8.616;2022-12-11T01:08:00;1.30;99.90
7720;DHT22;3902;49.474;8.616;2022-12-11T01:10:25;1.30;99.90
7720;DHT22;3902;49.474;8.616;2022-12-11T01:12:56;1.30;99.90
7720;DHT22;3902;49.474;8.616;2022-12-11T01:15:25;1.40;99.90
7720;DHT22;3902;49.474;8.616;2022-12-11T01:17:51;1.40;99.90
7720;DHT22;3902;49.474;8.616;2022-12-11T01:20:18;1.30;99.90
7720;DHT22;3902;49.474;8.616;2022-12-11T01:22:44;1.40;99.90
7720;DHT22;3902;49.474;8.616;2022-12-11T01:25:09;1.40;99.90
7720;DHT22;3902;49.474;8.616;2022-12-11T01:27:36;1.30;99.90
7720;DHT22;3902;49.474;8.616;2022-12-11T01:30:06;1.40;99.90
7720;DHT22;3902;49.474;8.616;2022-12-11T01:32:33;1.30;99.90
7720;DHT22;3902;49.474;8.616;2022-12-11T01:35:02;1.30;99.90
7720;DHT22;3902;49.474;8.616;2022-12-11T01:37:28;1.40;99.90
7720;DHT22;3902;49.474;8.616;2022-12-11T01:39:55;1.40;99.90
7720;DHT22;3902;49.474;8.616;2022-12-11T01:42:20;1.40;99.90
7720;DHT22;3902;49.474;8.616;2022-12-11T01:47:41;1.40;99.90
7720;DHT22;3902;49.474;8.616;2022-12-11T01:50:07;1.40;99.90
7720;DHT22;3902;49.474;8.616;2022-12-11T01:52:33;1.40;99.90
7720;DHT22;3902;49.474;8.616;2022-12-11T01:54:58;1.50;99.90
7720;DHT22;3902;49.474;8.616;2022-12-11T01:57:25;1.40;99.90
7720;DHT22;3902;49.474;8.616;2022-12-11T01:59:50;1.50;99.90
7720;DHT22;3902;49.474;8.616;2022-12-11T02:02:21;1.40;99.90
7720;DHT22;3902;49.474;8.616;2022-12-11T02:04:49;1.50;99.90
7720;DHT22;3902;49.474;8.616;2022-12-11T02:07:15;1.50;99.90
7720;DHT22;3902;49.474;8.616;2022-12-11T02:09:42;1.50;99.90
7720;DHT22;3902;49.474;8.616;2022-12-11T02:12:23;1.40;99.90
7720;DHT22;3902;49.474;8.616;2022-12-11T02:17:32;1.40;99.90
7720;DHT22;3902;49.474;8.616;2022-12-11T02:25:56;1.30;99.90
7720;DHT22;3902;49.474;8.616;2022-12-11T02:28:36;1.20;99.90
7720;DHT22;3902;49.474;8.616;2022-12-11T02:31:11;1.20;99.90
7720;DHT22;3902;49.474;8.616;2022-12-11T02:33:55;1.20;99.90
7720;DHT22;3902;49.474;8.616;2022-12-11T02:36:24;1.20;99.90
7720;DHT22;3902;49.474;8.616;2022-12-11T02:38:52;1.20;99.90
7720;DHT22;3902;49.474;8.616;2022-12-11T02:41:20;1.30;99.90
7720;DHT22;3902;49.474;8.616;2022-12-11T02:43:48;1.20;99.90
7720;DHT22;3902;49.474;8.616;2022-12-11T02:46:16;1.30;99.90
7720;DHT22;3902;49.474;8.616;2022-12-11T02:48:44;1.20;99.90
7720;DHT22;3902;49.474;8.616;2022-12-11T02:51:13;1.30;99.90
7720;DHT22;3902;49.474;8.616;2022-12-11T02:53:42;1.30;99.90
7720;DHT22;3902;49.474;8.616;2022-12-11T02:56:19;1.30;99.90
7720;DHT22;3902;49.474;8.616;2022-12-11T02:58:54;1.30;99.90
7720;DHT22;3902;49.474;8.616;2022-12-11T03:01:22;1.30;99.90
7720;DHT22;3902;49.474;8.616;2022-12-11T03:03:47;1.30;99.90
7720;DHT22;3902;49.474;8.616;2022-12-11T03:06:16;1.30;99.90
7720;DHT22;3902;49.474;8.616;2022-12-11T03:08:43;1.30;99.90
7720;DHT22;3902;49.474;8.616;2022-12-11T03:11:11;1.30;99.90
7720;DHT22;3902;49.474;8.616;2022-12-11T03:13:39;1.40;99.90
7720;DHT22;3902;49.474;8.616;2022-12-11T03:16:36;1.40;99.90
7720;DHT22;3902;49.474;8.616;2022-12-11T03:19:26;1.30;99.90
7720;DHT22;3902;49.474;8.616;2022-12-11T03:22:18;1.30;99.90
7720;DHT22;3902;49.474;8.616;2022-12-11T03:27:27;1.30;99.90
7720;DHT22;3902;49.474;8.616;2022-12-11T03:29:58;1.30;99.90
7720;DHT22;3902;49.474;8.616;2022-12-11T03:32:28;1.30;99.90
7720;DHT22;3902;49.474;8.616;2022-12-11T03:35:10;1.30;99.90
7720;DHT22;3902;49.474;8.616;2022-12-11T03:37:39;1.40;99.90
7720;DHT22;3902;49.474;8.616;2022-12-11T03:40:12;1.40;99.90
7720;DHT22;3902;49.474;8.616;2022-12-11T03:42:39;1.40;99.90
7720;DHT22;3902;49.474;8.616;2022-12-11T03:45:06;1.40;99.90
7720;DHT22;3902;49.474;8.616;2022-12-11T03:47:33;1.40;99.90
7720;DHT22;3902;49.474;8.616;2022-12-11T03:50:00;1.40;99.90
7720;DHT22;3902;49.474;8.616;2022-12-11T03:52:27;1.40;99.90
7720;DHT22;3902;49.474;8.616;2022-12-11T03:54:55;1.40;99.90
7720;DHT22;3902;49.474;8.616;2022-12-11T03:57:24;1.40;99.90
7720;DHT22;3902;49.474;8.616;2022-12-11T03:59:51;1.40;99.90
7720;DHT22;3902;49.474;8.616;2022-12-11T04:02:17;1.40;99.90
7720;DHT22;3902;49.474;8.616;2022-12-11T04:04:42;1.40;99.90
7720;DHT22;3902;49.474;8.616;2022-12-11T04:07:08;1.40;99.90
7720;DHT22;3902;49.474;8.616;2022-12-11T04:09:34;1.40;99.90
7720;DHT22;3902;49.474;8.616;2022-12-11T04:12:00;1.40;99.90
7720;DHT22;3902;49.474;8.616;2022-12-11T04:14:26;1.30;99.90
7720;DHT22;3902;49.474;8.616;2022-12-11T04:17:11;1.30;99.90
7720;DHT22;3902;49.474;8.616;2022-12-11T04:19:36;1.40;99.90
7720;DHT22;3902;49.474;8.616;2022-12-11T04:22:20;1.40;99.90
7720;DHT22;3902;49.474;8.616;2022-12-11T04:25:06;1.40;99.90
7720;DHT22;3902;49.474;8.616;2022-12-11T04:27:32;1.40;99.90
7720;DHT22;3902;49.474;8.616;2022-12-11T04:30:17;1.30;99.90
7720;DHT22;3902;49.474;8.616;2022-12-11T04:32:43;1.30;99.90
7720;DHT22;3902;49.474;8.616;2022-12-11T04:35:10;1.30;99.90
7720;DHT22;3902;49.474;8.616;2022-12-11T04:37:36;1.30;99.90
7720;DHT22;3902;49.474;8.616;2022-12-11T04:40:04;1.30;99.90
7720;DHT22;3902;49.474;8.616;2022-12-11T04:42:30;1.40;99.90
7720;DHT22;3902;49.474;8.616;2022-12-11T04:44:55;1.40;99.90
7720;DHT22;3902;49.474;8.616;2022-12-11T04:47:21;1.40;99.90
7720;DHT22;3902;49.474;8.616;2022-12-11T04:49:47;1.40;99.90
7720;DHT22;3902;49.474;8.616;2022-12-11T04:52:12;1.40;99.90
7720;DHT22;3902;49.474;8.616;2022-12-11T04:54:38;1.40;99.90
7720;DHT22;3902;49.474;8.616;2022-12-11T04:57:04;1.40;99.90
7720;DHT22;3902;49.474;8.616;2022-12-11T04:59:31;1.40;99.90
7720;DHT22;3902;49.474;8.616;2022-12-11T05:01:56;1.40;99.90
7720;DHT22;3902;49.474;8.616;2022-12-11T05:04:22;1.50;99.90
7720;DHT22;3902;49.474;8.616;2022-12-11T05:06:49;1.50;99.90
7720;DHT22;3902;49.474;8.616;2022-12-11T05:09:15;1.50;99.90
7720;DHT22;3902;49.474;8.616;2022-12-11T05:11:40;1.50;99.90
7720;DHT22;3902;49.474;8.616;2022-12-11T05:14:06;1.50;99.90
7720;DHT22;3902;49.474;8.616;2022-12-11T05:16:32;1.50;99.90
7720;DHT22;3902;49.474;8.616;2022-12-11T05:18:57;1.50;99.90
7720;DHT22;3902;49.474;8.616;2022-12-11T05:21:23;1.50;99.90
7720;DHT22;3902;49.474;8.616;2022-12-11T05:23:48;1.50;99.90
7720;DHT22;3902;49.474;8.616;2022-12-11T05:26:16;1.60;99.90
7720;DHT22;3902;49.474;8.616;2022-12-11T05:28:43;1.60;99.90
7720;DHT22;3902;49.474;8.616;2022-12-11T05:31:14;1.60;99.90
7720;DHT22;3902;49.474;8.616;2022-12-11T05:33:41;1.60;99.90
7720;DHT22;3902;49.474;8.616;2022-12-11T05:36:07;1.60;99.90
7720;DHT22;3902;49.474;8.616;2022-12-11T05:38:33;1.60;99.90
7720;DHT22;3902;49.474;8.616;2022-12-11T05:41:01;1.60;99.90
7720;DHT22;3902;49.474;8.616;2022-12-11T05:43:30;1.60;99.90
7720;DHT22;3902;49.474;8.616;2022-12-11T05:46:14;1.60;99.90
7720;DHT22;3902;49.474;8.616;2022-12-11T05:48:40;1.60;99.90
7720;DHT22;3902;49.474;8.616;2022-12-11T05:51:06;1.60;99.90
7720;DHT22;3902;49.474;8.616;2022-12-11T05:53:33;1.50;99.90
7720;DHT22;3902;49.474;8.616;2022-12-11T05:56:04;1.50;99.90
7720;DHT22;3902;49.474;8.616;2022-12-11T05:58:31;1.50;99.90
7720;DHT22;3902;49.474;8.616;2022-12-11T06:00:56;1.50;99.90
7720;DHT22;3902;49.474;8.616;2022-12-11T06:03:22;1.40;99.90
7720;DHT22;3902;49.474;8.616;2022-12-11T06:05:47;1.50;99.90
7720;DHT22;3902;49.474;8.616;2022-12-11T06:08:13;1.50;99.90
7720;DHT22;3902;49.474;8.616;2022-12-11T06:10:47;1.50;99.90
7720;DHT22;3902;49.474;8.616;2022-12-11T06:13:14;1.40;99.90
7720;DHT22;3902;49.474;8.616;2022-12-11T06:15:40;1.30;99.90
7720;DHT22;3902;49.474;8.616;2022-12-11T06:18:05;1.30;99.90
7720;DHT22;3902;49.474;8.616;2022-12-11T06:20:32;1.30;99.90
7720;DHT22;3902;49.474;8.616;2022-12-11T06:22:58;1.30;99.90
7720;DHT22;3902;49.474;8.616;2022-12-11T06:25:24;1.30;99.90
7720;DHT22;3902;49.474;8.616;2022-12-11T06:27:50;1.30;99.90
7720;DHT22;3902;49.474;8.616;2022-12-11T06:30:15;1.20;99.90
7720;DHT22;3902;49.474;8.616;2022-12-11T06:32:42;1.20;99.90
7720;DHT22;3902;49.474;8.616;2022-12-11T06:35:07;1.20;99.90
7720;DHT22;3902;49.474;8.616;2022-12-11T06:37:34;1.20;99.90
7720;DHT22;3902;49.474;8.616;2022-12-11T06:40:00;1.20;99.90
7720;DHT22;3902;49.474;8.616;2022-12-11T06:42:27;1.20;99.90
7720;DHT22;3902;49.474;8.616;2022-12-11T06:44:53;1.10;99.90
7720;DHT22;3902;49.474;8.616;2022-12-11T06:47:19;1.00;99.90
7720;DHT22;3902;49.474;8.616;2022-12-11T06:49:44;1.00;99.90
7720;DHT22;3902;49.474;8.616;2022-12-11T06:52:10;1.00;99.90
7720;DHT22;3902;49.474;8.616;2022-12-11T06:54:35;1.00;99.90
7720;DHT22;3902;49.474;8.616;2022-12-11T06:57:01;1.10;99.90
7720;DHT22;3902;49.474;8.616;2022-12-11T06:59:26;1.10;99.90
7720;DHT22;3902;49.474;8.616;2022-12-11T07:01:52;1.10;99.90
7720;DHT22;3902;49.474;8.616;2022-12-11T07:04:17;1.10;99.90
7720;DHT22;3902;49.474;8.616;2022-12-11T07:06:43;1.00;99.90
7720;DHT22;3902;49.474;8.616;2022-12-11T07:09:09;1.00;99.90
7720;DHT22;3902;49.474;8.616;2022-12-11T07:11:34;1.10;99.90
7720;DHT22;3902;49.474;8.616;2022-12-11T07:14:00;1.10;99.90
7720;DHT22;3902;49.474;8.616;2022-12-11T07:16:26;1.20;99.90
7720;DHT22;3902;49.474;8.616;2022-12-11T07:18:51;1.20;99.90
7720;DHT22;3902;49.474;8.616;2022-12-11T07:21:19;1.20;99.90
7720;DHT22;3902;49.474;8.616;2022-12-11T07:23:45;1.20;99.90
7720;DHT22;3902;49.474;8.616;2022-12-11T07:26:13;1.20;99.90
7720;DHT22;3902;49.474;8.616;2022-12-11T07:28:40;1.20;99.90
7720;DHT22;3902;49.474;8.616;2022-12-11T07:31:08;1.20;99.90
7720;DHT22;3902;49.474;8.616;2022-12-11T07:33:34;1.30;99.90
7720;DHT22;3902;49.474;8.616;2022-12-11T07:36:05;1.30;99.90
7720;DHT22;3902;49.474;8.616;2022-12-11T07:38:31;1.30;99.90
7720;DHT22;3902;49.474;8.616;2022-12-11T07:41:04;1.30;99.90
7720;DHT22;3902;49.474;8.616;2022-12-11T07:43:30;1.30;99.90
7720;DHT22;3902;49.474;8.616;2022-12-11T07:46:03;1.20;99.90
7720;DHT22;3902;49.474;8.616;2022-12-11T07:48:29;1.20;99.90
7720;DHT22;3902;49.474;8.616;2022-12-11T07:50:55;1.20;99.90
7720;DHT22;3902;49.474;8.616;2022-12-11T07:53:21;1.20;99.90
7720;DHT22;3902;49.474;8.616;2022-12-11T07:55:46;1.10;99.90
7720;DHT22;3902;49.474;8.616;2022-12-11T07:58:12;0.90;99.90
7720;DHT22;3902;49.474;8.616;2022-12-11T08:00:37;1.00;99.90
7720;DHT22;3902;49.474;8.616;2022-12-11T08:03:03;1.00;99.90
7720;DHT22;3902;49.474;8.616;2022-12-11T08:05:28;1.00;99.90
7720;DHT22;3902;49.474;8.616;2022-12-11T08:07:54;1.00;99.90
7720;DHT22;3902;49.474;8.616;2022-12-11T08:10:19;1.10;99.90
7720;DHT22;3902;49.474;8.616;2022-12-11T08:12:45;1.10;99.90
7720;DHT22;3902;49.474;8.616;2022-12-11T08:15:10;1.20;99.90
7720;DHT22;3902;49.474;8.616;2022-12-11T08:17:36;1.20;99.90
7720;DHT22;3902;49.474;8.616;2022-12-11T08:20:02;1.20;99.90
7720;DHT22;3902;49.474;8.616;2022-12-11T08:22:27;1.30;99.90
7720;DHT22;3902;49.474;8.616;2022-12-11T08:24:53;1.30;99.90
7720;DHT22;3902;49.474;8.616;2022-12-11T08:27:18;1.30;99.90
7720;DHT22;3902;49.474;8.616;2022-12-11T08:29:44;1.30;99.90
7720;DHT22;3902;49.474;8.616;2022-12-11T08:32:11;1.30;99.90
7720;DHT22;3902;49.474;8.616;2022-12-11T08:34:38;1.30;99.90
7720;DHT22;3902;49.474;8.616;2022-12-11T08:37:04;1.40;99.90
7720;DHT22;3902;49.474;8.616;2022-12-11T08:39:29;1.40;99.90
7720;DHT22;3902;49.474;8.616;2022-12-11T08:41:55;1.40;99.90
7720;DHT22;3902;49.474;8.616;2022-12-11T08:44:21;1.40;99.90
7720;DHT22;3902;49.474;8.616;2022-12-11T08:46:49;1.30;99.90
7720;DHT22;3902;49.474;8.616;2022-12-11T08:49:14;1.40;99.90
7720;DHT22;3902;49.474;8.616;2022-12-11T08:51:40;1.40;99.90
7720;DHT22;3902;49.474;8.616;2022-12-11T08:54:05;1.50;99.90
7720;DHT22;3902;49.474;8.616;2022-12-11T08:56:31;1.50;99.90
7720;DHT22;3902;49.474;8.616;2022-12-11T08:59:00;1.40;99.90
7720;DHT22;3902;49.474;8.616;2022-12-11T09:01:27;1.50;99.90
7720;DHT22;3902;49.474;8.616;2022-12-11T09:03:53;1.60;99.90
7720;DHT22;3902;49.474;8.616;2022-12-11T09:06:21;1.70;99.90
7720;DHT22;3902;49.474;8.616;2022-12-11T09:08:48;1.70;99.90
7720;DHT22;3902;49.474;8.616;2022-12-11T09:11:22;1.70;99.90
7720;DHT22;3902;49.474;8.616;2022-12-11T09:13:49;1.60;99.90
7720;DHT22;3902;49.474;8.616;2022-12-11T09:16:16;1.60;99.90
7720;DHT22;3902;49.474;8.616;2022-12-11T09:18:45;1.70;99.90
7720;DHT22;3902;49.474;8.616;2022-12-11T09:21:13;1.70;99.90
7720;DHT22;3902;49.474;8.616;2022-12-11T09:23:39;1.70;99.90
7720;DHT22;3902;49.474;8.616;2022-12-11T09:26:06;1.60;99.90
7720;DHT22;3902;49.474;8.616;2022-12-11T09:28:32;1.60;99.90
7720;DHT22;3902;49.474;8.616;2022-12-11T09:30:58;1.60;99.90
7720;DHT22;3902;49.474;8.616;2022-12-11T09:33:24;1.60;99.90
7720;DHT22;3902;49.474;8.616;2022-12-11T09:35:57;1.60;99.90
7720;DHT22;3902;49.474;8.616;2022-12-11T09:38:23;1.60;99.90
7720;DHT22;3902;49.474;8.616;2022-12-11T09:40:48;1.60;99.90
7720;DHT22;3902;49.474;8.616;2022-12-11T09:45:52;1.50;99.90
7720;DHT22;3902;49.474;8.616;2022-12-11T09:48:21;1.50;99.90
7720;DHT22;3902;49.474;8.616;2022-12-11T09:50:50;1.50;99.90
7720;DHT22;3902;49.474;8.616;2022-12-11T09:58:32;1.70;99.90
7720;DHT22;3902;49.474;8.616;2022-12-11T10:01:09;1.70;99.90
7720;DHT22;3902;49.474;8.616;2022-12-11T10:09:37;1.90;99.90
7720;DHT22;3902;49.474;8.616;2022-12-11T10:17:19;2.10;99.90
7720;DHT22;3902;49.474;8.616;2022-12-11T10:19:44;2.10;99.90
7720;DHT22;3902;49.474;8.616;2022-12-11T10:22:17;2.10;99.90
7720;DHT22;3902;49.474;8.616;2022-12-11T10:24:54;2.10;99.90
7720;DHT22;3902;49.474;8.616;2022-12-11T10:27:26;2.10;99.90
7720;DHT22;3902;49.474;8.616;2022-12-11T10:30:12;2.10;99.90
7720;DHT22;3902;49.474;8.616;2022-12-11T10:35:41;2.10;99.90
7720;DHT22;3902;49.474;8.616;2022-12-11T10:38:25;2.10;99.90
7720;DHT22;3902;49.474;8.616;2022-12-11T10:41:01;2.10;99.90
7720;DHT22;3902;49.474;8.616;2022-12-11T10:43:38;2.10;99.90
7720;DHT22;3902;49.474;8.616;2022-12-11T10:46:05;2.10;99.90
7720;DHT22;3902;49.474;8.616;2022-12-11T10:48:32;2.10;99.90
7720;DHT22;3902;49.474;8.616;2022-12-11T10:51:04;2.10;99.90
7720;DHT22;3902;49.474;8.616;2022-12-11T10:53:32;2.10;99.90
7720;DHT22;3902;49.474;8.616;2022-12-11T10:55:59;2.10;99.90
7720;DHT22;3902;49.474;8.616;2022-12-11T10:58:27;2.10;99.90
7720;DHT22;3902;49.474;8.616;2022-12-11T11:01:09;2.10;99.90
7720;DHT22;3902;49.474;8.616;2022-12-11T11:04:28;2.20;99.90
7720;DHT22;3902;49.474;8.616;2022-12-11T11:06:29;2.20;99.90
7720;DHT22;3902;49.474;8.616;2022-12-11T11:08:57;2.20;99.90
7720;DHT22;3902;49.474;8.616;2022-12-11T11:16:36;2.40;99.90
7720;DHT22;3902;49.474;8.616;2022-12-11T11:19:03;2.30;99.90
7720;DHT22;3902;49.474;8.616;2022-12-11T11:21:29;2.30;99.90
7720;DHT22;3902;49.474;8.616;2022-12-11T11:23:56;2.40;99.90
7720;DHT22;3902;49.474;8.616;2022-12-11T11:26:22;2.50;99.90
7720;DHT22;3902;49.474;8.616;2022-12-11T11:28:56;2.50;99.90
7720;DHT22;3902;49.474;8.616;2022-12-11T11:31:32;2.50;99.90
7720;DHT22;3902;49.474;8.616;2022-12-11T11:34:13;2.60;99.90
7720;DHT22;3902;49.474;8.616;2022-12-11T11:36:40;2.60;99.90
7720;DHT22;3902;49.474;8.616;2022-12-11T11:39:25;2.70;99.90
7720;DHT22;3902;49.474;8.616;2022-12-11T11:42:14;2.70;99.90
7720;DHT22;3902;49.474;8.616;2022-12-11T11:45:08;2.70;99.90
7720;DHT22;3902;49.474;8.616;2022-12-11T11:47:41;2.80;99.90
7720;DHT22;3902;49.474;8.616;2022-12-11T11:50:15;2.80;99.90
7720;DHT22;3902;49.474;8.616;2022-12-11T11:53:00;2.90;99.90
7720;DHT22;3902;49.474;8.616;2022-12-11T11:55:41;2.90;99.90
7720;DHT22;3902;49.474;8.616;2022-12-11T11:58:25;2.90;99.90
7720;DHT22;3902;49.474;8.616;2022-12-11T12:00:53;3.00;99.90
7720;DHT22;3902;49.474;8.616;2022-12-11T12:03:20;3.10;99.90
7720;DHT22;3902;49.474;8.616;2022-12-11T12:06:09;3.20;99.90
7720;DHT22;3902;49.474;8.616;2022-12-11T12:15:12;3.60;99.90
7720;DHT22;3902;49.474;8.616;2022-12-11T12:18:01;3.60;99.90
7720;DHT22;3902;49.474;8.616;2022-12-11T12:20:45;3.70;99.90
7720;DHT22;3902;49.474;8.616;2022-12-11T12:23:24;3.70;99.90
7720;DHT22;3902;49.474;8.616;2022-12-11T12:25:54;3.60;99.90
7720;DHT22;3902;49.474;8.616;2022-12-11T12:31:19;3.60;99.90
7720;DHT22;3902;49.474;8.616;2022-12-11T12:34:09;3.60;99.90
7720;DHT22;3902;49.474;8.616;2022-12-11T12:39:11;3.40;99.90
7720;DHT22;3902;49.474;8.616;2022-12-11T12:42:06;3.40;99.90
7720;DHT22;3902;49.474;8.616;2022-12-11T12:44:58;3.20;99.90
7720;DHT22;3902;49.474;8.616;2022-12-11T12:47:25;3.10;99.90
7720;DHT22;3902;49.474;8.616;2022-12-11T12:49:53;3.20;99.90
7720;DHT22;3902;49.474;8.616;2022-12-11T12:52:33;3.20;99.90
7720;DHT22;3902;49.474;8.616;2022-12-11T12:55:03;3.20;99.90
7720;DHT22;3902;49.474;8.616;2022-12-11T13:00:09;3.40;99.90
7720;DHT22;3902;49.474;8.616;2022-12-11T13:02:38;3.40;99.90
7720;DHT22;3902;49.474;8.616;2022-12-11T13:05:20;3.50;99.90
7720;DHT22;3902;49.474;8.616;2022-12-11T13:07:54;3.60;99.90
7720;DHT22;3902;49.474;8.616;2022-12-11T13:10:32;3.70;99.90
7720;DHT22;3902;49.474;8.616;2022-12-11T13:13:00;3.70;99.90
7720;DHT22;3902;49.474;8.616;2022-12-11T13:17:54;3.80;99.90
7720;DHT22;3902;49.474;8.616;2022-12-11T13:20:31;3.90;99.90
7720;DHT22;3902;49.474;8.616;2022-12-11T13:25:47;3.90;99.90
7720;DHT22;3902;49.474;8.616;2022-12-11T13:33:48;3.90;99.90
7720;DHT22;3902;49.474;8.616;2022-12-11T13:36:24;3.90;99.90
7720;DHT22;3902;49.474;8.616;2022-12-11T13:39:05;3.90;99.90
7720;DHT22;3902;49.474;8.616;2022-12-11T13:41:34;3.80;99.90
7720;DHT22;3902;49.474;8.616;2022-12-11T13:44:01;3.80;99.90
7720;DHT22;3902;49.474;8.616;2022-12-11T13:46:29;3.80;99.90
7720;DHT22;3902;49.474;8.616;2022-12-11T13:49:01;3.80;99.90
7720;DHT22;3902;49.474;8.616;2022-12-11T13:51:30;3.70;99.90
7720;DHT22;3902;49.474;8.616;2022-12-11T13:54:17;3.70;99.90
7720;DHT22;3902;49.474;8.616;2022-12-11T13:56:56;3.70;99.90
7720;DHT22;3902;49.474;8.616;2022-12-11T13:59:34;3.60;99.90
7720;DHT22;3902;49.474;8.616;2022-12-11T14:02:13;3.60;99.90
7720;DHT22;3902;49.474;8.616;2022-12-11T14:04:40;3.60;99.90
7720;DHT22;3902;49.474;8.616;2022-12-11T14:07:07;3.50;99.90
7720;DHT22;3902;49.474;8.616;2022-12-11T14:09:36;3.50;99.90
7720;DHT22;3902;49.474;8.616;2022-12-11T14:12:03;3.40;99.90
7720;DHT22;3902;49.474;8.616;2022-12-11T14:14:39;3.40;99.90
7720;DHT22;3902;49.474;8.616;2022-12-11T14:17:09;3.40;99.90
7720;DHT22;3902;49.474;8.616;2022-12-11T14:19:35;3.40;99.90
7720;DHT22;3902;49.474;8.616;2022-12-11T14:22:03;3.30;99.90
7720;DHT22;3902;49.474;8.616;2022-12-11T14:24:32;3.30;99.90
7720;DHT22;3902;49.474;8.616;2022-12-11T14:26:58;3.30;99.90
7720;DHT22;3902;49.474;8.616;2022-12-11T14:29:29;3.30;99.90
7720;DHT22;3902;49.474;8.616;2022-12-11T14:31:56;3.30;99.90
7720;DHT22;3902;49.474;8.616;2022-12-11T14:34:27;3.30;99.90
7720;DHT22;3902;49.474;8.616;2022-12-11T14:36:55;3.20;99.90
7720;DHT22;3902;49.474;8.616;2022-12-11T14:39:27;3.30;99.90
7720;DHT22;3902;49.474;8.616;2022-12-11T14:42:01;3.20;99.90
7720;DHT22;3902;49.474;8.616;2022-12-11T14:44:33;3.20;99.90
7720;DHT22;3902;49.474;8.616;2022-12-11T14:47:09;3.10;99.90
7720;DHT22;3902;49.474;8.616;2022-12-11T14:52:36;3.10;99.90
7720;DHT22;3902;49.474;8.616;2022-12-11T14:55:15;3.10;99.90
7720;DHT22;3902;49.474;8.616;2022-12-11T14:57:44;3.10;99.90
7720;DHT22;3902;49.474;8.616;2022-12-11T15:00:27;3.10;99.90
7720;DHT22;3902;49.474;8.616;2022-12-11T15:06:21;3.10;99.90
7720;DHT22;3902;49.474;8.616;2022-12-11T15:08:47;3.10;99.90
7720;DHT22;3902;49.474;8.616;2022-12-11T15:11:15;3.00;99.90
7720;DHT22;3902;49.474;8.616;2022-12-11T15:13:56;3.10;99.90
7720;DHT22;3902;49.474;8.616;2022-12-11T15:16:23;3.00;99.90
7720;DHT22;3902;49.474;8.616;2022-12-11T15:18:51;3.00;99.90
7720;DHT22;3902;49.474;8.616;2022-12-11T15:21:18;3.00;99.90
7720;DHT22;3902;49.474;8.616;2022-12-11T15:23:54;3.00;99.90
7720;DHT22;3902;49.474;8.616;2022-12-11T15:26:31;3.00;99.90
7720;DHT22;3902;49.474;8.616;2022-12-11T15:29:02;3.00;99.90
7720;DHT22;3902;49.474;8.616;2022-12-11T15:31:31;3.00;99.90
7720;DHT22;3902;49.474;8.616;2022-12-11T15:33:57;3.00;99.90
7720;DHT22;3902;49.474;8.616;2022-12-11T15:36:32;3.00;99.90
7720;DHT22;3902;49.474;8.616;2022-12-11T15:38:59;2.90;99.90
7720;DHT22;3902;49.474;8.616;2022-12-11T15:41:25;2.90;99.90
7720;DHT22;3902;49.474;8.616;2022-12-11T15:43:52;2.90;99.90
7720;DHT22;3902;49.474;8.616;2022-12-11T15:46:19;2.90;99.90
7720;DHT22;3902;49.474;8.616;2022-12-11T15:48:46;2.90;99.90
7720;DHT22;3902;49.474;8.616;2022-12-11T15:51:12;2.80;99.90
7720;DHT22;3902;49.474;8.616;2022-12-11T15:53:37;2.90;99.90
7720;DHT22;3902;49.474;8.616;2022-12-11T15:56:03;2.90;99.90
7720;DHT22;3902;49.474;8.616;2022-12-11T15:58:29;2.90;99.90
7720;DHT22;3902;49.474;8.616;2022-12-11T16:00:55;2.90;99.90
7720;DHT22;3902;49.474;8.616;2022-12-11T16:03:22;2.90;99.90
7720;DHT22;3902;49.474;8.616;2022-12-11T16:05:49;2.90;99.90
7720;DHT22;3902;49.474;8.616;2022-12-11T16:08:18;2.90;99.90
7720;DHT22;3902;49.474;8.616;2022-12-11T16:10:45;2.90;99.90
7720;DHT22;3902;49.474;8.616;2022-12-11T16:13:11;2.90;99.90
7720;DHT22;3902;49.474;8.616;2022-12-11T16:15:39;2.80;99.90
7720;DHT22;3902;49.474;8.616;2022-12-11T16:18:10;2.90;99.90
7720;DHT22;3902;49.474;8.616;2022-12-11T16:20:38;2.90;99.90
7720;DHT22;3902;49.474;8.616;2022-12-11T16:23:04;2.90;99.90
7720;DHT22;3902;49.474;8.616;2022-12-11T16:25:29;2.90;99.90
7720;DHT22;3902;49.474;8.616;2022-12-11T16:27:57;2.90;99.90
7720;DHT22;3902;49.474;8.616;2022-12-11T16:30:24;2.90;99.90
7720;DHT22;3902;49.474;8.616;2022-12-11T16:32:50;2.90;99.90
7720;DHT22;3902;49.474;8.616;2022-12-11T16:35:17;2.90;99.90
7720;DHT22;3902;49.474;8.616;2022-12-11T16:37:43;2.90;99.90
7720;DHT22;3902;49.474;8.616;2022-12-11T16:40:09;2.80;99.90
7720;DHT22;3902;49.474;8.616;2022-12-11T16:42:37;2.80;99.90
7720;DHT22;3902;49.474;8.616;2022-12-11T16:45:12;2.80;99.90
7720;DHT22;3902;49.474;8.616;2022-12-11T16:47:38;2.80;99.90
7720;DHT22;3902;49.474;8.616;2022-12-11T16:50:04;2.80;99.90
7720;DHT22;3902;49.474;8.616;2022-12-11T16:52:31;2.80;99.90
7720;DHT22;3902;49.474;8.616;2022-12-11T16:54:57;2.80;99.90
7720;DHT22;3902;49.474;8.616;2022-12-11T16:57:23;2.80;99.90
7720;DHT22;3902;49.474;8.616;2022-12-11T16:59:48;2.80;99.90
7720;DHT22;3902;49.474;8.616;2022-12-11T17:02:14;2.80;99.90
7720;DHT22;3902;49.474;8.616;2022-12-11T17:04:40;2.80;99.90
7720;DHT22;3902;49.474;8.616;2022-12-11T17:07:06;2.80;99.90
7720;DHT22;3902;49.474;8.616;2022-12-11T17:09:32;2.80;99.90
7720;DHT22;3902;49.474;8.616;2022-12-11T17:11:58;2.80;99.90
7720;DHT22;3902;49.474;8.616;2022-12-11T17:14:23;2.80;99.90
7720;DHT22;3902;49.474;8.616;2022-12-11T17:16:49;2.80;99.90
7720;DHT22;3902;49.474;8.616;2022-12-11T17:19:15;2.80;99.90
7720;DHT22;3902;49.474;8.616;2022-12-11T17:21:41;2.80;99.90
7720;DHT22;3902;49.474;8.616;2022-12-11T17:24:07;2.80;99.90
7720;DHT22;3902;49.474;8.616;2022-12-11T17:26:33;2.80;99.90
7720;DHT22;3902;49.474;8.616;2022-12-11T17:28:59;2.80;99.90
7720;DHT22;3902;49.474;8.616;2022-12-11T17:31:25;2.80;99.90
7720;DHT22;3902;49.474;8.616;2022-12-11T17:33:51;2.80;99.90
7720;DHT22;3902;49.474;8.616;2022-12-11T17:36:20;2.80;99.90
7720;DHT22;3902;49.474;8.616;2022-12-11T17:38:46;2.80;99.90
7720;DHT22;3902;49.474;8.616;2022-12-11T17:41:13;2.80;99.90
7720;DHT22;3902;49.474;8.616;2022-12-11T17:43:39;2.80;99.90